sensor_id;sensor_type;location;lat;lon;timestamp;pressure;altitude;pressure_sealevel;temperature;humidity
49216;BME280;45943;53.148;8.204;2023-04-29T00:00:07;101205.66;;;15.73;100.00
49216;BME280;45943;53.148;8.204;2023-04-29T00:02:34;101205.41;;;15.66;100.00
49216;BME280;45943;53.148;8.204;2023-04-29T00:05:00;101206.09;;;15.68;100.00
49216;BME280;45943;53.148;8.204;2023-04-29T00:07:32;101202.69;;;15.66;100.00
49216;BME280;45943;53.148;8.204;2023-04-29T00:09:58;101206.66;;;15.72;100.00
49216;BME280;45943;53.148;8.204;2023-04-29T00:12:25;101203.25;;;15.70;100.00
49216;BME280;45943;53.148;8.204;2023-04-29T00:14:52;101211.22;;;15.71;100.00
49216;BME280;45943;53.148;8.204;2023-04-29T00:17:18;101211.50;;;15.68;100.00
49216;BME280;45943;53.148;8.204;2023-04-29T00:19:44;101221.19;;;15.71;100.00
49216;BME280;45943;53.148;8.204;2023-04-29T00:22:10;101229.59;;;15.68;100.00
49216;BME280;45943;53.148;8.204;2023-04-29T00:24:36;101230.16;;;15.62;100.00
49216;BME280;45943;53.148;8.204;2023-04-29T00:27:02;101232.13;;;15.60;100.00
49216;BME280;45943;53.148;8.204;2023-04-29T00:29:28;101236.69;;;15.59;100.00
49216;BME280;45943;53.148;8.204;2023-04-29T00:31:54;101232.88;;;15.62;100.00
49216;BME280;45943;53.148;8.204;2023-04-29T00:34:20;101235.00;;;15.58;100.00
49216;BME280;45943;53.148;8.204;2023-04-29T00:36:46;101238.16;;;15.63;100.00
49216;BME280;45943;53.148;8.204;2023-04-29T00:39:12;101235.16;;;15.57;100.00
49216;BME280;45943;53.148;8.204;2023-04-29T00:41:38;101245.13;;;15.56;100.00
49216;BME280;45943;53.148;8.204;2023-04-29T00:44:04;101245.97;;;15.57;100.00
49216;BME280;45943;53.148;8.204;2023-04-29T00:46:31;101246.81;;;15.57;100.00
49216;BME280;45943;53.148;8.204;2023-04-29T00:48:58;101247.13;;;15.54;100.00
49216;BME280;45943;53.148;8.204;2023-04-29T00:51:25;101257.94;;;15.54;100.00
49216;BME280;45943;53.148;8.204;2023-04-29T00:53:51;101252.63;;;15.53;100.00
49216;BME280;45943;53.148;8.204;2023-04-29T00:56:18;101257.81;;;15.46;100.00
49216;BME280;45943;53.148;8.204;2023-04-29T00:58:45;101265.75;;;15.47;100.00
49216;BME280;45943;53.148;8.204;2023-04-29T01:01:18;101263.06;;;15.47;100.00
49216;BME280;45943;53.148;8.204;2023-04-29T01:03:44;101271.16;;;15.47;100.00
49216;BME280;45943;53.148;8.204;2023-04-29T01:06:14;101265.75;;;15.47;100.00
49216;BME280;45943;53.148;8.204;2023-04-29T01:11:34;101271.19;;;15.38;100.00
49216;BME280;45943;53.148;8.204;2023-04-29T01:14:22;101269.47;;;15.37;100.00
49216;BME280;45943;53.148;8.204;2023-04-29T01:16:54;101279.00;;;15.41;100.00
49216;BME280;45943;53.148;8.204;2023-04-29T01:19:43;101278.13;;;15.40;100.00
49216;BME280;45943;53.148;8.204;2023-04-29T01:22:12;101282.69;;;15.40;100.00
49216;BME280;45943;53.148;8.204;2023-04-29T01:24:39;101287.94;;;15.41;100.00
49216;BME280;45943;53.148;8.204;2023-04-29T01:35:20;101309.31;;;15.35;100.00
49216;BME280;45943;53.148;8.204;2023-04-29T01:40:30;101311.72;;;15.09;100.00
49216;BME280;45943;53.148;8.204;2023-04-29T01:43:03;101316.81;;;15.02;100.00
49216;BME280;45943;53.148;8.204;2023-04-29T01:45:33;101319.97;;;15.07;100.00
49216;BME280;45943;53.148;8.204;2023-04-29T01:47:59;101322.69;;;15.17;100.00
49216;BME280;45943;53.148;8.204;2023-04-29T01:50:26;101329.94;;;15.16;100.00
49216;BME280;45943;53.148;8.204;2023-04-29T01:52:52;101324.38;;;15.18;100.00
49216;BME280;45943;53.148;8.204;2023-04-29T01:55:18;101326.81;;;15.21;100.00
49216;BME280;45943;53.148;8.204;2023-04-29T01:57:44;101332.66;;;15.26;100.00
49216;BME280;45943;53.148;8.204;2023-04-29T02:00:10;101339.06;;;15.25;100.00
49216;BME280;45943;53.148;8.204;2023-04-29T02:02:36;101337.34;;;15.24;100.00
49216;BME280;45943;53.148;8.204;2023-04-29T02:05:02;101341.75;;;15.25;100.00
49216;BME280;45943;53.148;8.204;2023-04-29T02:07:28;101342.59;;;15.26;100.00
49216;BME280;45943;53.148;8.204;2023-04-29T02:09:54;101344.47;;;15.25;100.00
49216;BME280;45943;53.148;8.204;2023-04-29T02:12:20;101347.00;;;15.27;100.00
49216;BME280;45943;53.148;8.204;2023-04-29T02:14:46;101349.88;;;15.25;100.00
49216;BME280;45943;53.148;8.204;2023-04-29T02:17:12;101352.41;;;15.27;100.00
49216;BME280;45943;53.148;8.204;2023-04-29T02:19:39;101346.31;;;15.25;100.00
49216;BME280;45943;53.148;8.204;2023-04-29T02:22:05;101354.69;;;15.21;100.00
49216;BME280;45943;53.148;8.204;2023-04-29T02:24:31;101356.25;;;15.14;100.00
49216;BME280;45943;53.148;8.204;2023-04-29T02:26:57;101359.94;;;15.13;100.00
49216;BME280;45943;53.148;8.204;2023-04-29T02:29:24;101360.66;;;15.06;100.00
49216;BME280;45943;53.148;8.204;2023-04-29T02:31:51;101365.75;;;15.09;100.00
49216;BME280;45943;53.148;8.204;2023-04-29T02:34:17;101367.31;;;15.11;100.00
49216;BME280;45943;53.148;8.204;2023-04-29T02:36:43;101374.44;;;15.12;100.00
49216;BME280;45943;53.148;8.204;2023-04-29T02:39:09;101378.72;;;15.15;100.00
49216;BME280;45943;53.148;8.204;2023-04-29T02:41:35;101368.88;;;15.14;100.00
49216;BME280;45943;53.148;8.204;2023-04-29T02:44:02;101378.72;;;15.15;100.00
49216;BME280;45943;53.148;8.204;2023-04-29T02:46:28;101377.44;;;15.19;100.00
49216;BME280;45943;53.148;8.204;2023-04-29T02:48:54;101384.69;;;15.18;100.00
49216;BME280;45943;53.148;8.204;2023-04-29T02:51:20;101389.09;;;15.19;100.00
49216;BME280;45943;53.148;8.204;2023-04-29T02:53:46;101391.94;;;15.18;100.00
49216;BME280;45943;53.148;8.204;2023-04-29T02:56:12;101398.22;;;15.18;100.00
49216;BME280;45943;53.148;8.204;2023-04-29T02:58:38;101403.47;;;15.20;100.00
49216;BME280;45943;53.148;8.204;2023-04-29T03:01:04;101404.31;;;15.20;100.00
49216;BME280;45943;53.148;8.204;2023-04-29T03:03:30;101408.59;;;15.23;100.00
49216;BME280;45943;53.148;8.204;2023-04-29T03:05:56;101409.72;;;15.20;100.00
49216;BME280;45943;53.148;8.204;2023-04-29T03:08:22;101412.44;;;15.20;100.00
49216;BME280;45943;53.148;8.204;2023-04-29T03:10:48;101420.69;;;15.19;100.00
49216;BME280;45943;53.148;8.204;2023-04-29T03:13:14;101420.13;;;15.15;100.00
49216;BME280;45943;53.148;8.204;2023-04-29T03:15:40;101424.22;;;15.10;100.00
49216;BME280;45943;53.148;8.204;2023-04-29T03:18:08;101425.50;;;15.06;100.00
49216;BME280;45943;53.148;8.204;2023-04-29T03:20:34;101431.19;;;15.12;100.00
49216;BME280;45943;53.148;8.204;2023-04-29T03:23:00;101427.38;;;15.15;100.00
49216;BME280;45943;53.148;8.204;2023-04-29T03:25:27;101430.94;;;15.15;100.00
49216;BME280;45943;53.148;8.204;2023-04-29T03:27:53;101429.94;;;15.16;100.00
49216;BME280;45943;53.148;8.204;2023-04-29T03:30:19;101429.06;;;15.16;100.00
49216;BME280;45943;53.148;8.204;2023-04-29T03:32:45;101435.72;;;15.12;100.00
49216;BME280;45943;53.148;8.204;2023-04-29T03:35:11;101440.72;;;15.07;100.00
49216;BME280;45943;53.148;8.204;2023-04-29T03:37:37;101436.56;;;15.03;100.00
49216;BME280;45943;53.148;8.204;2023-04-29T03:40:04;101444.53;;;15.04;100.00
49216;BME280;45943;53.148;8.204;2023-04-29T03:42:30;101449.94;;;15.04;100.00
49216;BME280;45943;53.148;8.204;2023-04-29T03:44:56;101447.97;;;15.06;100.00
49216;BME280;45943;53.148;8.204;2023-04-29T03:47:22;101445.97;;;15.08;100.00
49216;BME280;45943;53.148;8.204;2023-04-29T03:49:48;101448.38;;;15.11;100.00
49216;BME280;45943;53.148;8.204;2023-04-29T03:52:14;101452.94;;;15.11;100.00
49216;BME280;45943;53.148;8.204;2023-04-29T03:54:40;101451.38;;;15.08;100.00
49216;BME280;45943;53.148;8.204;2023-04-29T03:57:07;101468.59;;;15.07;100.00
49216;BME280;45943;53.148;8.204;2023-04-29T03:59:33;101475.69;;;15.08;100.00
49216;BME280;45943;53.148;8.204;2023-04-29T04:01:59;101473.84;;;15.09;100.00
49216;BME280;45943;53.148;8.204;2023-04-29T04:04:25;101474.84;;;15.08;100.00
49216;BME280;45943;53.148;8.204;2023-04-29T04:06:51;101483.09;;;15.06;100.00
49216;BME280;45943;53.148;8.204;2023-04-29T04:09:17;101483.53;;;15.11;100.00
49216;BME280;45943;53.148;8.204;2023-04-29T04:11:43;101483.53;;;15.11;100.00
49216;BME280;45943;53.148;8.204;2023-04-29T04:14:10;101492.63;;;15.10;100.00
49216;BME280;45943;53.148;8.204;2023-04-29T04:16:36;101498.69;;;15.03;100.00
49216;BME280;45943;53.148;8.204;2023-04-29T04:19:02;101495.00;;;15.04;100.00
49216;BME280;45943;53.148;8.204;2023-04-29T04:21:28;101499.44;;;15.05;100.00
49216;BME280;45943;53.148;8.204;2023-04-29T04:23:56;101508.41;;;15.05;100.00
49216;BME280;45943;53.148;8.204;2023-04-29T04:26:22;101511.97;;;15.06;100.00
49216;BME280;45943;53.148;8.204;2023-04-29T04:28:48;101522.88;;;15.04;100.00
49216;BME280;45943;53.148;8.204;2023-04-29T04:31:14;101531.97;;;15.03;100.00
49216;BME280;45943;53.148;8.204;2023-04-29T04:33:40;101526.28;;;14.97;100.00
49216;BME280;45943;53.148;8.204;2023-04-29T04:36:06;101534.53;;;14.95;100.00
49216;BME280;45943;53.148;8.204;2023-04-29T04:38:32;101535.97;;;14.99;100.00
49216;BME280;45943;53.148;8.204;2023-04-29T04:40:58;101543.91;;;15.01;100.00
49216;BME280;45943;53.148;8.204;2023-04-29T04:43:25;101540.81;;;15.05;100.00
49216;BME280;45943;53.148;8.204;2023-04-29T04:45:51;101556.91;;;15.07;100.00
49216;BME280;45943;53.148;8.204;2023-04-29T04:48:18;101559.00;;;15.03;100.00
49216;BME280;45943;53.148;8.204;2023-04-29T04:50:44;101557.28;;;15.02;100.00
49216;BME280;45943;53.148;8.204;2023-04-29T04:53:10;101562.25;;;14.97;100.00
49216;BME280;45943;53.148;8.204;2023-04-29T04:55:36;101566.81;;;14.97;100.00
49216;BME280;45943;53.148;8.204;2023-04-29T04:58:02;101559.69;;;14.96;100.00
49216;BME280;45943;53.148;8.204;2023-04-29T05:00:27;101559.94;;;14.92;100.00
49216;BME280;45943;53.148;8.204;2023-04-29T05:02:53;101566.09;;;14.95;100.00
49216;BME280;45943;53.148;8.204;2023-04-29T05:05:19;101572.06;;;14.98;100.00
49216;BME280;45943;53.148;8.204;2023-04-29T05:07:45;101569.22;;;15.00;100.00
49216;BME280;45943;53.148;8.204;2023-04-29T05:10:12;101577.63;;;14.97;100.00
49216;BME280;45943;53.148;8.204;2023-04-29T05:12:38;101571.88;;;14.90;100.00
49216;BME280;45943;53.148;8.204;2023-04-29T05:15:04;101580.41;;;14.85;100.00
49216;BME280;45943;53.148;8.204;2023-04-29T05:17:30;101583.81;;;14.87;100.00
49216;BME280;45943;53.148;8.204;2023-04-29T05:19:56;101580.13;;;14.88;100.00
49216;BME280;45943;53.148;8.204;2023-04-29T05:22:22;101585.19;;;14.82;100.00
49216;BME280;45943;53.148;8.204;2023-04-29T05:24:48;101594.63;;;14.87;100.00
49216;BME280;45943;53.148;8.204;2023-04-29T05:27:15;101597.19;;;14.89;100.00
49216;BME280;45943;53.148;8.204;2023-04-29T05:29:41;101596.06;;;14.91;100.00
49216;BME280;45943;53.148;8.204;2023-04-29T05:32:08;101606.84;;;14.91;100.00
49216;BME280;45943;53.148;8.204;2023-04-29T05:34:34;101609.69;;;14.90;100.00
49216;BME280;45943;53.148;8.204;2023-04-29T05:37:00;101615.25;;;14.88;100.00
49216;BME280;45943;53.148;8.204;2023-04-29T05:39:26;101618.94;;;14.87;100.00
49216;BME280;45943;53.148;8.204;2023-04-29T05:41:52;101625.06;;;14.89;100.00
49216;BME280;45943;53.148;8.204;2023-04-29T05:44:18;101619.50;;;14.91;100.00
49216;BME280;45943;53.148;8.204;2023-04-29T05:46:44;101627.63;;;14.91;100.00
49216;BME280;45943;53.148;8.204;2023-04-29T05:49:10;101630.19;;;14.92;100.00
49216;BME280;45943;53.148;8.204;2023-04-29T05:51:36;101633.63;;;14.95;100.00
49216;BME280;45943;53.148;8.204;2023-04-29T05:54:02;101634.47;;;14.95;100.00
49216;BME280;45943;53.148;8.204;2023-04-29T05:56:29;101633.03;;;14.91;100.00
49216;BME280;45943;53.148;8.204;2023-04-29T05:58:56;101636.00;;;14.88;100.00
49216;BME280;45943;53.148;8.204;2023-04-29T06:01:22;101644.69;;;14.91;100.00
49216;BME280;45943;53.148;8.204;2023-04-29T06:03:48;101644.53;;;14.93;100.00
49216;BME280;45943;53.148;8.204;2023-04-29T06:06:14;101652.19;;;14.88;100.00
49216;BME280;45943;53.148;8.204;2023-04-29T06:08:40;101657.13;;;14.83;100.00
49216;BME280;45943;53.148;8.204;2023-04-29T06:11:06;101662.28;;;14.86;100.00
49216;BME280;45943;53.148;8.204;2023-04-29T06:13:32;101668.53;;;14.86;100.00
49216;BME280;45943;53.148;8.204;2023-04-29T06:15:58;101669.25;;;14.88;100.00
49216;BME280;45943;53.148;8.204;2023-04-29T06:18:24;101674.16;;;14.95;100.00
49216;BME280;45943;53.148;8.204;2023-04-29T06:20:50;101671.69;;;14.91;100.00
49216;BME280;45943;53.148;8.204;2023-04-29T06:23:15;101680.28;;;14.97;100.00
49216;BME280;45943;53.148;8.204;2023-04-29T06:25:42;101677.72;;;14.95;100.00
49216;BME280;45943;53.148;8.204;2023-04-29T06:28:08;101677.94;;;14.92;100.00
49216;BME280;45943;53.148;8.204;2023-04-29T06:30:34;101676.44;;;14.99;100.00
49216;BME280;45943;53.148;8.204;2023-04-29T06:33:00;101677.44;;;14.98;100.00
49216;BME280;45943;53.148;8.204;2023-04-29T06:35:26;101686.91;;;14.92;100.00
49216;BME280;45943;53.148;8.204;2023-04-29T06:37:52;101681.38;;;14.94;100.00
49216;BME280;45943;53.148;8.204;2023-04-29T06:40:18;101698.91;;;15.00;100.00
49216;BME280;45943;53.148;8.204;2023-04-29T06:42:44;101700.25;;;15.05;100.00
49216;BME280;45943;53.148;8.204;2023-04-29T06:45:10;101708.09;;;15.08;100.00
49216;BME280;45943;53.148;8.204;2023-04-29T06:47:36;101705.38;;;15.08;100.00
49216;BME280;45943;53.148;8.204;2023-04-29T06:50:02;101714.06;;;15.12;100.00
49216;BME280;45943;53.148;8.204;2023-04-29T06:52:28;101710.72;;;15.19;100.00
49216;BME280;45943;53.148;8.204;2023-04-29T06:54:54;101718.44;;;15.24;100.00
49216;BME280;45943;53.148;8.204;2023-04-29T06:57:20;101720.03;;;15.27;100.00
49216;BME280;45943;53.148;8.204;2023-04-29T06:59:46;101727.19;;;15.37;100.00
49216;BME280;45943;53.148;8.204;2023-04-29T07:02:13;101734.38;;;15.48;100.00
49216;BME280;45943;53.148;8.204;2023-04-29T07:04:39;101731.47;;;15.61;100.00
49216;BME280;45943;53.148;8.204;2023-04-29T07:07:06;101733.25;;;15.71;100.00
49216;BME280;45943;53.148;8.204;2023-04-29T07:09:32;101742.69;;;15.77;100.00
49216;BME280;45943;53.148;8.204;2023-04-29T07:12:01;101738.56;;;15.83;100.00
49216;BME280;45943;53.148;8.204;2023-04-29T07:14:28;101739.72;;;15.90;100.00
49216;BME280;45943;53.148;8.204;2023-04-29T07:16:54;101742.94;;;16.04;100.00
49216;BME280;45943;53.148;8.204;2023-04-29T07:19:20;101746.97;;;16.20;100.00
49216;BME280;45943;53.148;8.204;2023-04-29T07:21:46;101754.53;;;16.26;100.00
49216;BME280;45943;53.148;8.204;2023-04-29T07:24:12;101752.53;;;16.28;100.00
49216;BME280;45943;53.148;8.204;2023-04-29T07:26:38;101751.69;;;16.27;100.00
49216;BME280;45943;53.148;8.204;2023-04-29T07:29:05;101761.13;;;16.33;100.00
49216;BME280;45943;53.148;8.204;2023-04-29T07:31:31;101762.22;;;16.30;100.00
49216;BME280;45943;53.148;8.204;2023-04-29T07:33:57;101766.38;;;16.25;100.00
49216;BME280;45943;53.148;8.204;2023-04-29T07:36:23;101763.38;;;16.28;100.00
49216;BME280;45943;53.148;8.204;2023-04-29T07:38:49;101766.94;;;16.28;100.00
49216;BME280;45943;53.148;8.204;2023-04-29T07:41:15;101769.34;;;16.31;100.00
49216;BME280;45943;53.148;8.204;2023-04-29T07:43:41;101776.38;;;16.34;100.00
49216;BME280;45943;53.148;8.204;2023-04-29T07:46:07;101783.06;;;16.40;100.00
49216;BME280;45943;53.148;8.204;2023-04-29T07:48:37;101785.53;;;16.43;100.00
49216;BME280;45943;53.148;8.204;2023-04-29T07:51:04;101786.94;;;16.47;100.00
49216;BME280;45943;53.148;8.204;2023-04-29T07:53:31;101785.63;;;16.41;100.00
49216;BME280;45943;53.148;8.204;2023-04-29T07:55:57;101789.09;;;16.43;100.00
49216;BME280;45943;53.148;8.204;2023-04-29T07:58:23;101795.06;;;16.47;100.00
49216;BME280;45943;53.148;8.204;2023-04-29T08:00:49;101798.31;;;16.41;100.00
49216;BME280;45943;53.148;8.204;2023-04-29T08:03:15;101791.66;;;16.45;100.00
49216;BME280;45943;53.148;8.204;2023-04-29T08:05:41;101805.25;;;16.64;100.00
49216;BME280;45943;53.148;8.204;2023-04-29T08:08:09;101806.31;;;16.82;100.00
49216;BME280;45943;53.148;8.204;2023-04-29T08:10:36;101815.56;;;16.99;100.00
49216;BME280;45943;53.148;8.204;2023-04-29T08:13:05;101817.03;;;17.03;100.00
49216;BME280;45943;53.148;8.204;2023-04-29T08:15:31;101819.88;;;17.11;100.00
49216;BME280;45943;53.148;8.204;2023-04-29T08:17:58;101822.44;;;17.13;100.00
49216;BME280;45943;53.148;8.204;2023-04-29T08:20:24;101825.88;;;17.15;100.00
49216;BME280;45943;53.148;8.204;2023-04-29T08:22:50;101826.56;;;17.27;100.00
49216;BME280;45943;53.148;8.204;2023-04-29T08:25:16;101829.84;;;17.30;100.00
49216;BME280;45943;53.148;8.204;2023-04-29T08:27:42;101828.88;;;17.41;100.00
49216;BME280;45943;53.148;8.204;2023-04-29T08:30:10;101831.00;;;17.37;100.00
49216;BME280;45943;53.148;8.204;2023-04-29T08:32:36;101835.28;;;17.30;100.00
49216;BME280;45943;53.148;8.204;2023-04-29T08:35:02;101843.16;;;17.24;100.00
49216;BME280;45943;53.148;8.204;2023-04-29T08:37:29;101843.69;;;17.17;100.00
49216;BME280;45943;53.148;8.204;2023-04-29T08:39:55;101850.56;;;17.12;100.00
49216;BME280;45943;53.148;8.204;2023-04-29T08:42:27;101850.13;;;17.07;100.00
49216;BME280;45943;53.148;8.204;2023-04-29T08:44:58;101848.41;;;17.06;100.00
49216;BME280;45943;53.148;8.204;2023-04-29T08:47:25;101858.69;;;17.12;100.00
49216;BME280;45943;53.148;8.204;2023-04-29T08:49:55;101861.97;;;17.15;100.00
49216;BME280;45943;53.148;8.204;2023-04-29T08:52:26;101858.72;;;17.22;100.00
49216;BME280;45943;53.148;8.204;2023-04-29T08:54:52;101862.84;;;17.26;100.00
49216;BME280;45943;53.148;8.204;2023-04-29T08:57:18;101856.97;;;17.30;100.00
49216;BME280;45943;53.148;8.204;2023-04-29T08:59:45;101865.25;;;17.38;100.00
49216;BME280;45943;53.148;8.204;2023-04-29T09:02:12;101865.84;;;17.52;100.00
49216;BME280;45943;53.148;8.204;2023-04-29T09:05:04;101872.13;;;17.62;100.00
49216;BME280;45943;53.148;8.204;2023-04-29T09:07:36;101873.81;;;17.63;100.00
49216;BME280;45943;53.148;8.204;2023-04-29T09:10:03;101880.28;;;17.71;100.00
49216;BME280;45943;53.148;8.204;2023-04-29T09:12:30;101877.41;;;17.73;100.00
49216;BME280;45943;53.148;8.204;2023-04-29T09:14:56;101867.69;;;17.80;99.14
49216;BME280;45943;53.148;8.204;2023-04-29T09:17:41;101868.38;;;17.92;100.00
49216;BME280;45943;53.148;8.204;2023-04-29T09:22:47;101875.72;;;18.19;96.18
49216;BME280;45943;53.148;8.204;2023-04-29T09:25:31;101875.81;;;18.37;90.26
49216;BME280;45943;53.148;8.204;2023-04-29T09:27:58;101881.91;;;18.48;87.89
49216;BME280;45943;53.148;8.204;2023-04-29T09:30:46;101874.63;;;18.49;81.15
49216;BME280;45943;53.148;8.204;2023-04-29T09:33:12;101884.13;;;18.62;79.41
49216;BME280;45943;53.148;8.204;2023-04-29T09:35:39;101881.34;;;18.82;81.86
49216;BME280;45943;53.148;8.204;2023-04-29T09:38:09;101882.16;;;18.92;79.10
49216;BME280;45943;53.148;8.204;2023-04-29T09:40:37;101892.09;;;19.01;78.46
49216;BME280;45943;53.148;8.204;2023-04-29T09:43:04;101889.56;;;19.17;75.38
49216;BME280;45943;53.148;8.204;2023-04-29T09:45:39;101892.44;;;19.34;75.53
49216;BME280;45943;53.148;8.204;2023-04-29T09:48:07;101891.19;;;19.46;75.38
49216;BME280;45943;53.148;8.204;2023-04-29T09:50:35;101891.44;;;19.53;70.63
49216;BME280;45943;53.148;8.204;2023-04-29T09:53:03;101901.16;;;19.55;70.35
49216;BME280;45943;53.148;8.204;2023-04-29T09:55:30;101903.78;;;19.57;67.83
49216;BME280;45943;53.148;8.204;2023-04-29T09:57:56;101904.38;;;19.68;69.16
49216;BME280;45943;53.148;8.204;2023-04-29T10:00:23;101905.22;;;19.87;68.02
49216;BME280;45943;53.148;8.204;2023-04-29T10:02:52;101904.03;;;19.89;67.87
49216;BME280;45943;53.148;8.204;2023-04-29T10:05:21;101903.25;;;19.97;65.04
49216;BME280;45943;53.148;8.204;2023-04-29T10:07:47;101900.13;;;19.92;64.73
49216;BME280;45943;53.148;8.204;2023-04-29T10:10:15;101900.38;;;19.81;66.05
49216;BME280;45943;53.148;8.204;2023-04-29T10:12:42;101898.66;;;19.97;69.05
49216;BME280;45943;53.148;8.204;2023-04-29T10:15:19;101903.34;;;19.87;63.68
49216;BME280;45943;53.148;8.204;2023-04-29T10:18:00;101908.28;;;19.92;63.60
49216;BME280;45943;53.148;8.204;2023-04-29T10:20:33;101917.63;;;20.07;62.24
49216;BME280;45943;53.148;8.204;2023-04-29T10:23:02;101904.75;;;20.17;60.72
49216;BME280;45943;53.148;8.204;2023-04-29T10:25:28;101903.78;;;20.26;59.36
49216;BME280;45943;53.148;8.204;2023-04-29T10:27:55;101911.22;;;20.16;60.15
49216;BME280;45943;53.148;8.204;2023-04-29T10:30:24;101909.97;;;20.11;60.98
49216;BME280;45943;53.148;8.204;2023-04-29T10:32:51;101907.56;;;20.33;61.22
49216;BME280;45943;53.148;8.204;2023-04-29T10:35:17;101899.59;;;20.66;59.58
49216;BME280;45943;53.148;8.204;2023-04-29T10:37:45;101909.47;;;20.67;58.08
49216;BME280;45943;53.148;8.204;2023-04-29T10:40:17;101911.22;;;20.16;57.59
49216;BME280;45943;53.148;8.204;2023-04-29T10:42:50;101911.41;;;20.23;59.66
49216;BME280;45943;53.148;8.204;2023-04-29T10:45:24;101903.47;;;20.55;59.00
49216;BME280;45943;53.148;8.204;2023-04-29T10:53:01;101907.31;;;20.79;56.24
49216;BME280;45943;53.148;8.204;2023-04-29T10:55:28;101911.69;;;20.72;56.32
49216;BME280;45943;53.148;8.204;2023-04-29T10:57:55;101916.75;;;20.58;56.03
49216;BME280;45943;53.148;8.204;2023-04-29T11:02:54;101914.00;;;20.50;54.71
49216;BME280;45943;53.148;8.204;2023-04-29T11:05:32;101920.13;;;20.26;55.44
49216;BME280;45943;53.148;8.204;2023-04-29T11:08:13;101917.81;;;20.40;56.97
49216;BME280;45943;53.148;8.204;2023-04-29T11:10:41;101916.84;;;20.83;55.44
49216;BME280;45943;53.148;8.204;2023-04-29T11:13:24;101903.94;;;20.93;54.71
49216;BME280;45943;53.148;8.204;2023-04-29T11:15:52;101913.06;;;20.68;53.71
49216;BME280;45943;53.148;8.204;2023-04-29T11:18:31;101917.75;;;20.49;54.12
49216;BME280;45943;53.148;8.204;2023-04-29T11:23:34;101907.81;;;21.25;51.70
49216;BME280;45943;53.148;8.204;2023-04-29T11:26:01;101913.81;;;21.53;49.42
49216;BME280;45943;53.148;8.204;2023-04-29T11:28:30;101915.72;;;21.60;49.67
49216;BME280;45943;53.148;8.204;2023-04-29T11:30:56;101914.34;;;21.97;49.28
49216;BME280;45943;53.148;8.204;2023-04-29T11:33:23;101921.00;;;22.19;47.52
49216;BME280;45943;53.148;8.204;2023-04-29T11:35:49;101915.34;;;22.37;47.56
49216;BME280;45943;53.148;8.204;2023-04-29T11:38:16;101916.47;;;22.58;47.77
49216;BME280;45943;53.148;8.204;2023-04-29T11:40:48;101917.56;;;22.80;47.17
49216;BME280;45943;53.148;8.204;2023-04-29T11:43:18;101912.66;;;22.84;45.01
49216;BME280;45943;53.148;8.204;2023-04-29T11:45:45;101917.25;;;22.83;45.16
49216;BME280;45943;53.148;8.204;2023-04-29T11:48:23;101919.81;;;22.85;45.30
49216;BME280;45943;53.148;8.204;2023-04-29T11:50:51;101926.94;;;23.02;44.80
49216;BME280;45943;53.148;8.204;2023-04-29T11:53:20;101923.88;;;23.28;46.03
49216;BME280;45943;53.148;8.204;2023-04-29T11:55:47;101919.28;;;23.52;44.88
49216;BME280;45943;53.148;8.204;2023-04-29T11:58:15;101922.88;;;23.52;44.40
49216;BME280;45943;53.148;8.204;2023-04-29T12:00:42;101924.75;;;23.52;44.04
49216;BME280;45943;53.148;8.204;2023-04-29T12:03:13;101928.72;;;23.72;43.23
49216;BME280;45943;53.148;8.204;2023-04-29T12:06:00;101925.25;;;23.78;43.34
49216;BME280;45943;53.148;8.204;2023-04-29T12:08:27;101940.63;;;24.02;43.53
49216;BME280;45943;53.148;8.204;2023-04-29T12:10:55;101938.75;;;24.17;43.27
49216;BME280;45943;53.148;8.204;2023-04-29T12:13:25;101934.56;;;23.92;41.82
49216;BME280;45943;53.148;8.204;2023-04-29T12:15:53;101937.25;;;23.77;42.47
49216;BME280;45943;53.148;8.204;2023-04-29T12:18:21;101938.53;;;23.89;42.30
49216;BME280;45943;53.148;8.204;2023-04-29T12:20:48;101943.84;;;24.06;42.74
49216;BME280;45943;53.148;8.204;2023-04-29T12:23:21;101935.59;;;23.68;41.09
49216;BME280;45943;53.148;8.204;2023-04-29T12:25:57;101933.41;;;23.86;42.81
49216;BME280;45943;53.148;8.204;2023-04-29T12:28:24;101949.16;;;24.07;42.45
49216;BME280;45943;53.148;8.204;2023-04-29T12:30:52;101947.84;;;24.18;41.38
49216;BME280;45943;53.148;8.204;2023-04-29T12:33:22;101947.28;;;24.22;41.61
49216;BME280;45943;53.148;8.204;2023-04-29T12:35:51;101954.72;;;24.37;41.33
49216;BME280;45943;53.148;8.204;2023-04-29T12:38:22;101954.34;;;24.02;41.02
49216;BME280;45943;53.148;8.204;2023-04-29T12:40:56;101963.81;;;24.14;41.37
49216;BME280;45943;53.148;8.204;2023-04-29T12:43:25;101953.81;;;24.21;40.61
49216;BME280;45943;53.148;8.204;2023-04-29T12:45:53;101958.53;;;24.27;40.11
49216;BME280;45943;53.148;8.204;2023-04-29T12:48:32;101954.44;;;24.31;40.39
49216;BME280;45943;53.148;8.204;2023-04-29T12:51:02;101952.56;;;24.47;40.40
49216;BME280;45943;53.148;8.204;2023-04-29T12:53:28;101957.09;;;24.40;39.22
49216;BME280;45943;53.148;8.204;2023-04-29T12:55:55;101964.22;;;24.49;40.37
49216;BME280;45943;53.148;8.204;2023-04-29T12:58:22;101971.31;;;24.73;40.24
49216;BME280;45943;53.148;8.204;2023-04-29T13:00:48;101966.28;;;24.91;38.82
49216;BME280;45943;53.148;8.204;2023-04-29T13:03:14;101966.00;;;24.86;38.16
49216;BME280;45943;53.148;8.204;2023-04-29T13:05:40;101970.66;;;24.71;38.49
49216;BME280;45943;53.148;8.204;2023-04-29T13:08:07;101964.38;;;24.77;38.46
49216;BME280;45943;53.148;8.204;2023-04-29T13:10:33;101961.66;;;24.92;38.69